Accueil
METAR-TAF:

METAR-TAF

Aéroports :

Yuma, Arizona, États-Unis

latitude: 32-37-25N, longitude: 113-45-50W, altitude: 64 m

Observation

Le bulletin a été fait il y a 10 minutes, à 08:57 UTC
Vent 8 kt de sud/sud-est
Température 29°C
Humidité 29%
Pression 1008 hPa
Visibilité: 16.1 km
Ciel clair

METAR: KNYL 300857Z AUTO 15008KT 10SM CLR 29/09 A2977 RMK AO2 SLP076 T02890094 56003

Heure: 02:07 (09:07 UTC)

Prévision

Prévision valable du 30 à 09 UTC au 31 à 09 UTC
Vent 10 kt de sud
Visibilité: 0114 m
Quelques nuages à une hauteur de 15000 ft

TAF: KNYL 3009/3109 18010KT 9999 FEW150 QNH2971INS AUTOMATED SENSOR METWATCH 3009 TIL 0114 T22/3012Z T42/3022Z

Observations et prévisions météorologiques de plus de 4000 aéroports (messages METAR et TAF).

Les stations disponibles sont représentées par des disques jaunes et rouges sur la carte.

Passer la souris dessus pour voir le nom de la station.

Cliquer dessus pour voir les observations et prévisions météorologiques.

Pour changer de carte: cliquez sur les boutons verts avec une croix noire pour zoomer, sur le bouton vert avec un tiret pour effectuer un zoom arrière, ou sur les flèches vertes pour les cartes adjacentes.


METAR-TAF: